createdAt,value
2023-05-22T00:00:10.108Z,3.13
2023-05-22T00:02:58.972Z,3.17
2023-05-22T00:05:26.366Z,3.55
2023-05-22T00:07:54.021Z,2.50
2023-05-22T00:10:21.360Z,3.20
2023-05-22T00:12:49.129Z,2.58
2023-05-22T00:15:16.453Z,2.97
2023-05-22T00:17:44.599Z,3.17
2023-05-22T00:20:12.347Z,3.97
2023-05-22T00:22:39.991Z,3.00
2023-05-22T00:25:07.917Z,3.40
2023-05-22T00:27:35.603Z,2.88
2023-05-22T00:30:03.658Z,2.70
2023-05-22T00:32:31.882Z,3.35
2023-05-22T00:34:59.343Z,3.10
2023-05-22T00:37:27.346Z,3.50
2023-05-22T00:39:54.598Z,2.88
2023-05-22T00:42:23.124Z,2.72
2023-05-22T00:44:50.416Z,2.63
2023-05-22T00:47:18.223Z,3.55
2023-05-22T00:49:46.547Z,4.30
2023-05-22T00:52:15.125Z,2.90
2023-05-22T00:54:43.404Z,3.42
2023-05-22T00:57:11.302Z,3.10
2023-05-22T00:59:38.693Z,3.58
2023-05-22T01:02:07.091Z,3.03
2023-05-22T01:04:35.278Z,2.72
2023-05-22T01:07:03.263Z,3.75
2023-05-22T01:09:30.723Z,2.75
2023-05-22T01:12:01.305Z,3.38
2023-05-22T01:14:38.404Z,3.42
2023-05-22T01:17:23.536Z,3.13
2023-05-22T01:20:29.537Z,2.90
2023-05-22T01:23:10.604Z,3.35
2023-05-22T01:25:40.711Z,3.35
2023-05-22T01:28:29.681Z,3.58
2023-05-22T01:31:09.160Z,3.05
2023-05-22T01:33:45.123Z,2.95
2023-05-22T01:36:16.025Z,3.28
2023-05-22T01:38:44.033Z,3.42
2023-05-22T01:41:12.265Z,3.53
2023-05-22T01:43:40.294Z,2.95
2023-05-22T01:46:09.510Z,3.63
2023-05-22T01:48:37.260Z,3.47
2023-05-22T01:51:29.839Z,3.38
2023-05-22T01:54:07.467Z,2.67
2023-05-22T01:56:46.913Z,3.17
2023-05-22T01:59:16.659Z,3.58
2023-05-22T02:01:44.601Z,2.90
2023-05-22T02:04:14.744Z,3.53
2023-05-22T02:06:44.256Z,2.70
2023-05-22T02:09:13.579Z,2.72
2023-05-22T02:11:42.482Z,3.17
2023-05-22T02:14:12.331Z,2.55
2023-05-22T02:16:40.217Z,3.45
2023-05-22T02:19:07.982Z,3.45
2023-05-22T02:21:37.174Z,3.75
2023-05-22T02:24:05.066Z,3.47
2023-05-22T02:26:32.558Z,3.35
2023-05-22T02:29:01.581Z,3.45
2023-05-22T02:31:29.439Z,2.35
2023-05-22T02:33:58.045Z,2.95
2023-05-22T02:36:26.288Z,2.95
2023-05-22T02:38:55.744Z,3.50
2023-05-22T02:41:23.709Z,3.20
2023-05-22T02:43:51.359Z,3.00
2023-05-22T02:46:18.931Z,3.20
2023-05-22T02:48:47.042Z,3.17
2023-05-22T02:51:14.385Z,4.00
2023-05-22T02:53:42.101Z,3.00
2023-05-22T02:56:13.217Z,3.15
2023-05-22T02:58:41.147Z,3.38
2023-05-22T03:01:10.478Z,3.88
2023-05-22T03:03:38.351Z,3.35
2023-05-22T03:06:06.350Z,3.58
2023-05-22T03:08:34.922Z,3.47
2023-05-22T03:11:02.996Z,3.50
2023-05-22T03:13:30.600Z,3.15
2023-05-22T03:15:59.790Z,3.47
2023-05-22T03:18:28.004Z,3.30
2023-05-22T03:20:56.328Z,3.47
2023-05-22T03:23:25.450Z,3.58
2023-05-22T03:25:53.293Z,4.13
2023-05-22T03:28:22.160Z,3.65
2023-05-22T03:30:49.778Z,3.65
2023-05-22T03:33:22.560Z,3.05
2023-05-22T03:35:50.223Z,4.15
2023-05-22T03:38:17.785Z,4.03
2023-05-22T03:40:45.431Z,3.92
2023-05-22T03:43:13.237Z,3.35
2023-05-22T03:45:40.679Z,3.35
2023-05-22T03:48:10.675Z,3.40
2023-05-22T03:50:38.436Z,3.10
2023-05-22T03:53:06.803Z,3.35
2023-05-22T03:55:34.332Z,3.33
2023-05-22T03:58:01.821Z,3.10
2023-05-22T04:00:29.128Z,3.20
2023-05-22T04:02:58.808Z,3.85
2023-05-22T04:05:26.599Z,3.17
2023-05-22T04:07:54.282Z,2.92
2023-05-22T04:10:23.574Z,3.33
2023-05-22T04:12:51.375Z,3.35
2023-05-22T04:15:18.706Z,3.17
2023-05-22T04:17:47.459Z,3.20
2023-05-22T04:20:14.942Z,2.88
2023-05-22T04:22:42.508Z,2.90
2023-05-22T04:25:10.371Z,3.35
2023-05-22T04:27:38.110Z,3.47
2023-05-22T04:30:07.539Z,3.17
2023-05-22T04:32:36.445Z,3.33
2023-05-22T04:35:03.989Z,2.92
2023-05-22T04:37:32.046Z,3.58
2023-05-22T04:40:03.284Z,3.00
2023-05-22T04:42:34.556Z,3.50
2023-05-22T04:45:01.854Z,4.13
2023-05-22T04:47:31.988Z,3.67
2023-05-22T04:50:04.927Z,3.25
2023-05-22T04:52:32.653Z,5.10
2023-05-22T04:55:01.134Z,3.70
2023-05-22T04:57:29.876Z,3.65
2023-05-22T04:59:57.578Z,3.20
2023-05-22T05:02:25.512Z,3.90
2023-05-22T05:04:53.259Z,3.90
2023-05-22T05:07:21.695Z,3.53
2023-05-22T05:09:49.247Z,4.07
2023-05-22T05:12:17.335Z,4.15
2023-05-22T05:14:44.788Z,3.45
2023-05-22T05:17:15.790Z,3.70
2023-05-22T05:19:43.274Z,3.60
2023-05-22T05:22:11.268Z,4.10
2023-05-22T05:24:38.717Z,4.07
2023-05-22T05:27:06.403Z,3.42
2023-05-22T05:29:33.949Z,3.60
2023-05-22T05:32:07.562Z,4.10
2023-05-22T05:35:01.217Z,3.25
2023-05-22T05:37:41.992Z,3.35
2023-05-22T05:40:09.819Z,2.97
2023-05-22T05:45:10.970Z,4.07
2023-05-22T05:47:38.609Z,3.63
2023-05-22T05:50:07.212Z,2.88
2023-05-22T05:52:36.287Z,2.92
2023-05-22T05:55:10.139Z,3.08
2023-05-22T05:57:38.580Z,4.10
2023-05-22T06:00:11.736Z,3.40
2023-05-22T06:02:43.721Z,3.33
2023-05-22T06:08:00.280Z,2.72
2023-05-22T06:10:29.793Z,3.03
2023-05-22T06:13:02.390Z,3.28
2023-05-22T06:15:31.599Z,3.80
2023-05-22T06:17:59.734Z,3.10
2023-05-22T06:20:27.752Z,2.35
2023-05-22T06:22:55.644Z,3.10
2023-05-22T06:25:26.140Z,3.30
2023-05-22T06:27:54.108Z,2.65
2023-05-22T06:30:38.391Z,2.88
2023-05-22T06:33:10.389Z,2.70
2023-05-22T06:35:38.049Z,2.58
2023-05-22T06:38:06.159Z,2.65
2023-05-22T06:40:34.112Z,2.40
2023-05-22T06:43:12.559Z,2.63
2023-05-22T06:45:52.442Z,2.35
2023-05-22T06:48:38.884Z,2.67
2023-05-22T06:51:15.125Z,2.05
2023-05-22T06:53:43.096Z,3.40
2023-05-22T06:56:18.454Z,2.95
2023-05-22T06:58:54.121Z,2.63
2023-05-22T07:01:24.647Z,3.03
2023-05-22T07:04:09.758Z,2.50
2023-05-22T07:06:50.132Z,2.67
2023-05-22T07:09:19.132Z,1.95
2023-05-22T07:11:49.169Z,2.07
2023-05-22T07:14:18.183Z,3.72
2023-05-22T07:16:46.396Z,2.28
2023-05-22T07:19:19.402Z,2.15
2023-05-22T07:21:46.950Z,1.38
2023-05-22T07:24:18.396Z,1.90
2023-05-22T07:26:46.746Z,2.03
2023-05-22T07:29:15.038Z,2.17
2023-05-22T07:31:42.761Z,1.20
2023-05-22T07:34:11.557Z,2.42
2023-05-22T07:36:39.089Z,1.80
2023-05-22T07:39:09.846Z,1.60
2023-05-22T07:41:41.184Z,1.52
2023-05-22T07:44:12.333Z,2.13
2023-05-22T07:46:41.383Z,1.50
2023-05-22T07:49:19.623Z,2.35
2023-05-22T07:51:47.567Z,1.83
2023-05-22T07:54:18.165Z,1.58
2023-05-22T07:56:49.648Z,1.25
2023-05-22T07:59:19.778Z,1.60
2023-05-22T08:01:47.251Z,1.75
2023-05-22T08:04:15.250Z,1.80
2023-05-22T08:06:44.401Z,1.50
2023-05-22T08:09:12.279Z,1.48
2023-05-22T08:11:42.195Z,1.25
2023-05-22T08:14:10.152Z,1.52
2023-05-22T08:16:37.759Z,2.03
2023-05-22T08:19:07.328Z,1.55
2023-05-22T08:21:35.962Z,2.20
2023-05-22T08:24:03.780Z,1.67
2023-05-22T08:26:33.251Z,1.58
2023-05-22T08:29:01.372Z,2.00
2023-05-22T08:31:29.478Z,1.27
2023-05-22T08:34:03.227Z,1.90
2023-05-22T08:36:31.745Z,1.50
2023-05-22T08:38:59.815Z,1.52
2023-05-22T08:41:28.065Z,2.08
2023-05-22T08:43:55.887Z,1.17
2023-05-22T08:46:26.532Z,1.83
2023-05-22T08:48:57.390Z,2.10
2023-05-22T08:51:31.452Z,2.20
2023-05-22T08:54:00.574Z,1.88
2023-05-22T08:56:29.571Z,1.55
2023-05-22T08:58:59.920Z,1.70
2023-05-22T09:01:29.459Z,1.20
2023-05-22T09:04:02.118Z,2.25
2023-05-22T09:06:30.136Z,1.42
2023-05-22T09:08:59.147Z,2.00
2023-05-22T09:11:26.667Z,1.48
2023-05-22T09:14:07.593Z,1.77
2023-05-22T09:16:47.678Z,1.25
2023-05-22T09:19:16.027Z,1.17
2023-05-22T09:21:44.621Z,0.90
2023-05-22T09:24:12.547Z,1.85
2023-05-22T09:26:40.721Z,1.25
2023-05-22T09:29:09.006Z,1.55
2023-05-22T09:31:43.824Z,1.88
2023-05-22T09:34:17.641Z,1.33
2023-05-22T09:39:12.887Z,1.20
2023-05-22T09:41:40.419Z,1.15
2023-05-22T09:44:15.445Z,1.30
2023-05-22T09:46:45.681Z,1.30
2023-05-22T09:49:16.069Z,1.45
2023-05-22T09:51:48.223Z,1.23
2023-05-22T09:56:44.839Z,1.45
2023-05-22T09:59:13.923Z,1.08
2023-05-22T10:01:42.899Z,1.50
2023-05-22T10:04:16.479Z,1.65
2023-05-22T10:06:50.237Z,1.23
2023-05-22T10:09:23.562Z,1.27
2023-05-22T10:14:21.441Z,1.17
2023-05-22T10:16:48.979Z,1.52
2023-05-22T10:19:17.929Z,1.58
2023-05-22T10:21:47.362Z,1.80
2023-05-22T10:24:16.148Z,1.15
2023-05-22T10:26:44.380Z,1.20
2023-05-22T10:29:18.709Z,1.48
2023-05-22T10:31:55.779Z,1.50
2023-05-22T10:34:42.489Z,1.45
2023-05-22T10:37:36.052Z,1.65
2023-05-22T10:40:10.710Z,1.27
2023-05-22T10:42:38.692Z,1.50
2023-05-22T10:45:10.861Z,1.60
2023-05-22T10:50:11.124Z,1.50
2023-05-22T10:52:40.010Z,1.70
2023-05-22T10:55:09.775Z,1.50
2023-05-22T10:57:40.709Z,2.80
2023-05-22T11:00:16.212Z,1.80
2023-05-22T11:02:47.320Z,1.55
2023-05-22T11:05:22.883Z,1.98
2023-05-22T11:07:50.254Z,2.13
2023-05-22T11:10:27.651Z,1.45
2023-05-22T11:13:12.170Z,1.35
2023-05-22T11:15:45.639Z,1.50
2023-05-22T11:18:14.647Z,1.67
2023-05-22T11:20:43.409Z,1.50
2023-05-22T11:23:11.722Z,1.35
2023-05-22T11:25:41.543Z,1.92
2023-05-22T11:28:10.804Z,2.03
2023-05-22T11:30:38.974Z,1.52
2023-05-22T11:33:06.827Z,1.73
2023-05-22T11:35:34.894Z,2.70
2023-05-22T11:38:06.338Z,1.60
2023-05-22T11:40:34.094Z,1.70
2023-05-22T11:43:01.868Z,1.08
2023-05-22T11:45:29.424Z,1.55
2023-05-22T11:47:57.074Z,2.05
2023-05-22T11:50:40.108Z,1.08
2023-05-22T11:53:10.964Z,1.40
2023-05-22T11:55:38.479Z,1.75
2023-05-22T11:58:05.820Z,1.80
2023-05-22T12:00:33.557Z,1.73
2023-05-22T12:03:01.022Z,1.85
2023-05-22T12:05:31.547Z,1.30
2023-05-22T12:07:59.045Z,1.67
2023-05-22T12:10:26.709Z,1.30
2023-05-22T12:12:54.983Z,1.90
2023-05-22T12:15:22.575Z,2.10
2023-05-22T12:17:50.083Z,2.08
2023-05-22T12:20:17.967Z,1.55
2023-05-22T12:22:45.411Z,1.50
2023-05-22T12:25:16.544Z,1.30
2023-05-22T12:27:47.938Z,2.40
2023-05-22T12:32:50.718Z,2.05
2023-05-22T12:37:51.250Z,1.30
2023-05-22T12:40:19.594Z,2.58
2023-05-22T12:42:48.688Z,1.83
2023-05-22T12:45:18.113Z,1.98
2023-05-22T12:47:46.274Z,1.83
2023-05-22T12:50:14.690Z,1.52
2023-05-22T12:52:42.219Z,1.55
2023-05-22T12:55:11.781Z,1.52
2023-05-22T12:57:39.217Z,1.95
2023-05-22T13:00:07.824Z,1.70
2023-05-22T13:02:35.791Z,1.98
2023-05-22T13:05:03.994Z,1.75
2023-05-22T13:07:32.694Z,2.15
2023-05-22T13:10:00.660Z,1.83
2023-05-22T13:12:28.420Z,1.40
2023-05-22T13:14:56.626Z,1.92
2023-05-22T13:17:24.507Z,1.70
2023-05-22T13:19:55.050Z,1.52
2023-05-22T13:22:23.834Z,1.92
2023-05-22T13:24:52.422Z,1.50
2023-05-22T13:27:19.961Z,1.60
2023-05-22T13:29:47.840Z,1.83
2023-05-22T13:32:15.914Z,2.00
2023-05-22T13:34:43.741Z,1.75
2023-05-22T13:37:12.122Z,1.60
2023-05-22T13:39:40.066Z,1.77
2023-05-22T13:42:07.640Z,1.55
2023-05-22T13:44:35.509Z,1.45
2023-05-22T13:47:03.076Z,2.08
2023-05-22T13:49:30.870Z,1.45
2023-05-22T13:51:58.381Z,1.90
2023-05-22T13:54:26.530Z,1.92
2023-05-22T13:56:54.075Z,1.60
2023-05-22T13:59:21.808Z,1.45
2023-05-22T14:01:49.252Z,2.05
2023-05-22T14:04:17.039Z,1.98
2023-05-22T14:06:44.753Z,1.48
2023-05-22T14:09:12.676Z,1.90
2023-05-22T14:11:40.505Z,1.58
2023-05-22T14:14:09.332Z,1.77
2023-05-22T14:16:36.814Z,1.67
2023-05-22T14:19:04.955Z,1.13
2023-05-22T14:21:33.151Z,1.50
2023-05-22T14:24:02.554Z,2.15
2023-05-22T14:26:30.193Z,1.20
2023-05-22T14:28:58.211Z,0.98
2023-05-22T14:31:29.320Z,1.20
2023-05-22T14:33:57.320Z,1.23
2023-05-22T14:36:24.906Z,1.20
2023-05-22T14:38:57.257Z,1.67
2023-05-22T14:41:24.761Z,0.93
2023-05-22T14:43:52.718Z,0.73
2023-05-22T14:46:20.489Z,1.10
2023-05-22T14:48:49.518Z,2.20
2023-05-22T14:51:19.378Z,1.83
2023-05-22T14:53:47.833Z,1.00
2023-05-22T14:56:15.287Z,1.00
2023-05-22T14:58:43.067Z,0.95
2023-05-22T15:01:10.705Z,0.93
2023-05-22T15:03:38.630Z,1.00
2023-05-22T15:06:06.472Z,1.00
2023-05-22T15:08:34.192Z,0.90
2023-05-22T15:11:01.867Z,1.10
2023-05-22T15:13:29.555Z,1.00
2023-05-22T15:15:58.453Z,1.10
2023-05-22T15:18:27.321Z,1.02
2023-05-22T15:20:55.099Z,1.15
2023-05-22T15:23:25.447Z,0.93
2023-05-22T15:25:54.133Z,0.85
2023-05-22T15:28:22.510Z,0.98
2023-05-22T15:30:50.087Z,1.10
2023-05-22T15:33:18.084Z,0.95
2023-05-22T15:35:47.378Z,1.45
2023-05-22T15:38:16.121Z,0.95
2023-05-22T15:40:44.391Z,1.23
2023-05-22T15:43:12.344Z,1.08
2023-05-22T15:45:40.443Z,1.30
2023-05-22T15:48:08.681Z,1.02
2023-05-22T15:50:36.347Z,1.20
2023-05-22T15:53:04.119Z,0.90
2023-05-22T15:55:31.572Z,0.90
2023-05-22T15:57:59.774Z,1.13
2023-05-22T16:00:27.787Z,0.80
2023-05-22T16:02:55.603Z,1.10
2023-05-22T16:05:23.350Z,0.77
2023-05-22T16:07:51.147Z,1.10
2023-05-22T16:10:18.872Z,1.30
2023-05-22T16:12:46.808Z,1.42
2023-05-22T16:15:14.345Z,1.58
2023-05-22T16:17:42.281Z,1.33
2023-05-22T16:20:10.146Z,0.93
2023-05-22T16:22:48.177Z,0.75
2023-05-22T16:25:17.431Z,1.10
2023-05-22T16:27:45.668Z,1.65
2023-05-22T16:30:16.842Z,1.10
2023-05-22T16:32:48.440Z,0.70
2023-05-22T16:35:16.565Z,1.33
2023-05-22T16:37:44.396Z,1.13
2023-05-22T16:40:12.180Z,0.75
2023-05-22T16:42:40.218Z,1.10
2023-05-22T16:45:08.175Z,0.98
2023-05-22T16:47:36.262Z,1.00
2023-05-22T16:50:04.167Z,0.73
2023-05-22T16:52:33.192Z,1.15
2023-05-22T16:55:03.839Z,1.25
2023-05-22T16:59:59.428Z,1.52
2023-05-22T17:02:27.315Z,1.20
2023-05-22T17:04:54.928Z,0.95
2023-05-22T17:07:23.553Z,2.03
2023-05-22T17:09:51.341Z,1.30
2023-05-22T17:12:19.169Z,1.40
2023-05-22T17:14:47.079Z,1.30
2023-05-22T17:17:14.916Z,1.30
2023-05-22T17:19:42.468Z,1.30
2023-05-22T17:22:10.328Z,1.48
2023-05-22T17:24:37.822Z,1.70
2023-05-22T17:27:06.796Z,1.60
2023-05-22T17:29:34.672Z,1.25
2023-05-22T17:32:04.948Z,1.40
2023-05-22T17:34:33.681Z,1.60
2023-05-22T17:37:01.465Z,1.75
2023-05-22T17:39:29.890Z,1.77
2023-05-22T17:41:59.672Z,1.58
2023-05-22T17:44:28.059Z,1.42
2023-05-22T17:46:56.022Z,2.10
2023-05-22T17:49:23.619Z,1.70
2023-05-22T17:51:51.409Z,1.65
2023-05-22T17:54:18.936Z,2.15
2023-05-22T17:56:46.943Z,1.80
2023-05-22T17:59:14.646Z,1.80
2023-05-22T18:01:42.435Z,2.10
2023-05-22T18:04:11.351Z,2.17
2023-05-22T18:06:39.176Z,2.72
2023-05-22T18:09:07.934Z,2.55
2023-05-22T18:11:35.768Z,2.60
2023-05-22T18:14:03.797Z,2.47
2023-05-22T18:16:31.651Z,2.65
2023-05-22T18:18:59.311Z,2.33
2023-05-22T18:21:27.117Z,2.63
2023-05-22T18:23:56.056Z,3.00
2023-05-22T18:26:23.924Z,3.05
2023-05-22T18:28:51.503Z,3.63
2023-05-22T18:31:19.356Z,3.15
2023-05-22T18:33:47.419Z,3.28
2023-05-22T18:36:17.281Z,2.97
2023-05-22T18:38:45.253Z,3.05
2023-05-22T18:41:13.681Z,3.85
2023-05-22T18:43:41.615Z,3.15
2023-05-22T18:46:10.592Z,3.45
2023-05-22T18:48:38.691Z,3.00
2023-05-22T18:51:08.526Z,3.83
2023-05-22T18:53:36.227Z,3.67
2023-05-22T18:56:04.192Z,3.60
2023-05-22T18:58:32.089Z,3.22
2023-05-22T19:01:02.022Z,3.05
2023-05-22T19:03:29.610Z,3.35
2023-05-22T19:05:59.123Z,3.30
2023-05-22T19:08:26.888Z,3.13
2023-05-22T19:10:59.971Z,3.90
2023-05-22T19:13:27.475Z,2.60
2023-05-22T19:15:57.343Z,3.00
2023-05-22T19:18:25.342Z,4.15
2023-05-22T19:20:53.160Z,3.80
2023-05-22T19:23:20.738Z,3.92
2023-05-22T19:25:48.930Z,4.10
2023-05-22T19:28:16.443Z,3.33
2023-05-22T19:30:44.999Z,3.42
2023-05-22T19:33:14.855Z,4.53
2023-05-22T19:35:43.012Z,3.30
2023-05-22T19:38:10.761Z,3.75
2023-05-22T19:40:38.811Z,3.75
2023-05-22T19:43:07.181Z,3.42
2023-05-22T19:45:35.171Z,3.95
2023-05-22T19:48:02.684Z,4.20
2023-05-22T19:50:32.399Z,3.92
2023-05-22T19:52:59.877Z,3.83
2023-05-22T19:55:27.897Z,4.20
2023-05-22T19:57:56.975Z,3.65
2023-05-22T20:00:28.523Z,4.38
2023-05-22T20:02:56.377Z,3.40
2023-05-22T20:05:26.110Z,3.80
2023-05-22T20:07:54.355Z,4.28
2023-05-22T20:10:23.888Z,4.57
2023-05-22T20:12:54.252Z,4.50
2023-05-22T20:15:25.151Z,5.18
2023-05-22T20:17:53.707Z,4.80
2023-05-22T20:20:24.690Z,4.57
2023-05-22T20:22:53.913Z,5.00
2023-05-22T20:25:21.979Z,4.55
2023-05-22T20:27:50.550Z,4.78
2023-05-22T20:30:18.496Z,6.03
2023-05-22T20:32:46.936Z,4.50
2023-05-22T20:35:18.753Z,3.78
2023-05-22T20:37:46.770Z,4.53
2023-05-22T20:40:18.091Z,4.10
2023-05-22T20:42:46.254Z,4.25
2023-05-22T20:45:15.097Z,4.47
2023-05-22T20:47:44.145Z,3.80
2023-05-22T20:50:12.227Z,4.68
2023-05-22T20:52:39.731Z,4.18
2023-05-22T20:55:08.714Z,4.50
2023-05-22T20:57:36.426Z,4.40
2023-05-22T21:00:06.581Z,4.70
2023-05-22T21:02:34.153Z,4.70
2023-05-22T21:05:02.262Z,4.28
2023-05-22T21:07:30.200Z,4.97
2023-05-22T21:09:58.238Z,5.25
2023-05-22T21:12:26.287Z,5.13
2023-05-22T21:14:54.333Z,5.10
2023-05-22T21:17:23.395Z,4.60
2023-05-22T21:19:51.257Z,4.72
2023-05-22T21:22:18.790Z,4.35
2023-05-22T21:24:46.753Z,4.78
2023-05-22T21:27:14.584Z,4.93
2023-05-22T21:29:42.342Z,5.05
2023-05-22T21:32:09.924Z,4.80
2023-05-22T21:34:37.934Z,4.72
2023-05-22T21:37:07.906Z,4.30
2023-05-22T21:39:35.964Z,4.70
2023-05-22T21:42:04.216Z,4.82
2023-05-22T21:44:32.316Z,5.25
2023-05-22T21:47:00.012Z,4.60
2023-05-22T21:49:28.112Z,4.82
2023-05-22T21:51:55.959Z,4.20
2023-05-22T21:54:23.896Z,4.53
2023-05-22T21:56:52.572Z,4.35
2023-05-22T21:59:20.369Z,4.03
2023-05-22T22:01:48.349Z,4.68
2023-05-22T22:04:16.292Z,4.15
2023-05-22T22:06:45.391Z,3.85
2023-05-22T22:09:13.368Z,4.68
2023-05-22T22:11:41.141Z,4.18
2023-05-22T22:14:08.956Z,4.57
2023-05-22T22:16:36.633Z,3.50
2023-05-22T22:19:05.118Z,3.72
2023-05-22T22:21:33.850Z,3.78
2023-05-22T22:24:01.650Z,4.25
2023-05-22T22:26:30.207Z,4.38
2023-05-22T22:29:00.184Z,3.83
2023-05-22T22:31:27.815Z,4.13
2023-05-22T22:33:55.591Z,4.30
2023-05-22T22:36:23.414Z,3.85
2023-05-22T22:38:51.306Z,4.15
2023-05-22T22:41:18.756Z,4.97
2023-05-22T22:43:46.504Z,5.03
2023-05-22T22:46:14.216Z,3.80
2023-05-22T22:48:41.982Z,3.58
2023-05-22T22:51:09.716Z,4.63
2023-05-22T22:53:38.442Z,4.05
2023-05-22T22:56:06.125Z,4.25
2023-05-22T22:58:33.976Z,4.57
2023-05-22T23:01:01.710Z,3.60
2023-05-22T23:03:29.596Z,4.55
2023-05-22T23:05:57.951Z,4.32
2023-05-22T23:08:26.178Z,4.85
2023-05-22T23:10:54.176Z,3.47
2023-05-22T23:13:22.004Z,4.65
2023-05-22T23:15:49.775Z,4.38
2023-05-22T23:18:17.786Z,4.80
2023-05-22T23:20:45.472Z,4.32
2023-05-22T23:23:13.322Z,4.40
2023-05-22T23:25:42.033Z,3.67
2023-05-22T23:28:10.096Z,3.70
2023-05-22T23:30:37.650Z,4.25
2023-05-22T23:33:06.212Z,4.78
2023-05-22T23:35:33.964Z,4.07
2023-05-22T23:38:01.754Z,4.30
2023-05-22T23:40:29.348Z,4.07
2023-05-22T23:42:57.108Z,4.22
2023-05-22T23:45:25.028Z,4.20
2023-05-22T23:47:52.830Z,4.00
2023-05-22T23:50:20.399Z,5.03
2023-05-22T23:52:48.473Z,4.63
2023-05-22T23:55:16.332Z,4.93
2023-05-22T23:57:44.122Z,4.50
